Saluda Gardens, South Carolina
Current Conditions -  °F | °C
As of 2:56 PM on Thursday 18 Dec 2014 (Local Time) from KCAE Reporting Station
Scattered Clouds Scattered Clouds  
Wind Chill: 60°   Ceiling: Unl
Heat Index: 60°   Visibility: 10mi
Dew Point: 33°   Wind: 3mph
Humidity: 36%   Direction: NA
Pressure: 30.07"   Gusts: NA
Location:  33.9973°N, 81.0998°W
Report Text: KCAE 181956Z VRB03KT 10SM FEW130 SCT220 16/01 A3007 RMK AO2 SLP182 T01560006
Loading
Personal Weather Stations






























Interactive Weather Map New forecast layout! Learn more

10-Day Weather Forecast

Advertisements
Track Severe Weather on mobile